createdAt,value
2018-06-08T00:01:02.989Z,20.43
2018-06-08T00:02:08.506Z,20.47
2018-06-08T00:03:14.029Z,20.38
2018-06-08T00:04:19.548Z,20.35
2018-06-08T00:05:25.061Z,20.35
2018-06-08T00:06:30.645Z,20.34
2018-06-08T00:07:36.100Z,20.30
2018-06-08T00:08:41.632Z,20.33
2018-06-08T00:09:47.131Z,20.35
2018-06-08T00:10:52.655Z,20.35
2018-06-08T00:11:58.166Z,20.28
2018-06-08T00:13:03.680Z,20.27
2018-06-08T00:14:09.207Z,20.33
2018-06-08T00:15:14.722Z,20.31
2018-06-08T00:16:20.248Z,20.30
2018-06-08T00:17:25.752Z,20.31
2018-06-08T00:18:31.278Z,20.25
2018-06-08T00:19:36.792Z,20.31
2018-06-08T00:20:42.305Z,20.23
2018-06-08T00:21:47.833Z,20.28
2018-06-08T00:22:53.355Z,20.25
2018-06-08T00:23:58.861Z,20.23
2018-06-08T00:25:04.378Z,20.23
2018-06-08T00:26:09.899Z,20.31
2018-06-08T00:27:15.410Z,20.31
2018-06-08T00:28:20.934Z,20.28
2018-06-08T00:29:26.457Z,20.24
2018-06-08T00:30:31.970Z,20.34
2018-06-08T00:31:37.491Z,20.27
2018-06-08T00:32:43.053Z,20.25
2018-06-08T00:33:48.524Z,20.28
2018-06-08T00:34:54.042Z,20.20
2018-06-08T00:35:59.555Z,20.33
2018-06-08T00:37:05.074Z,20.24
2018-06-08T00:38:10.588Z,20.25
2018-06-08T00:39:16.110Z,20.35
2018-06-08T00:40:21.625Z,20.20
2018-06-08T00:41:27.145Z,20.20
2018-06-08T00:42:32.664Z,20.18
2018-06-08T00:43:38.182Z,20.21
2018-06-08T00:44:43.695Z,20.21
2018-06-08T00:45:49.219Z,20.24
2018-06-08T00:46:54.732Z,20.20
2018-06-08T00:48:00.254Z,20.18
2018-06-08T00:49:05.774Z,20.28
2018-06-08T00:50:11.288Z,20.23
2018-06-08T00:51:16.804Z,20.24
2018-06-08T00:52:22.331Z,20.20
2018-06-08T00:53:27.844Z,20.21
2018-06-08T00:54:33.355Z,20.24
2018-06-08T00:55:38.879Z,20.20
2018-06-08T00:56:44.393Z,20.10
2018-06-08T00:57:49.907Z,20.21
2018-06-08T00:58:55.427Z,20.15
2018-06-08T01:00:00.949Z,20.25
2018-06-08T01:01:06.461Z,20.10
2018-06-08T01:02:11.986Z,20.20
2018-06-08T01:03:17.501Z,20.15
2018-06-08T01:04:23.014Z,20.15
2018-06-08T01:05:28.540Z,20.21
2018-06-08T01:06:34.056Z,20.23
2018-06-08T01:07:39.566Z,20.20
2018-06-08T01:08:45.085Z,20.25
2018-06-08T01:09:50.605Z,20.18
2018-06-08T01:10:56.131Z,20.18
2018-06-08T01:12:01.640Z,20.13
2018-06-08T01:13:07.157Z,20.13
2018-06-08T01:14:12.673Z,20.27
2018-06-08T01:15:18.196Z,20.12
2018-06-08T01:16:23.713Z,20.23
2018-06-08T01:17:29.228Z,20.28
2018-06-08T01:18:34.749Z,20.16
2018-06-08T01:19:40.270Z,20.13
2018-06-08T01:20:45.786Z,20.13
2018-06-08T01:21:51.300Z,20.13
2018-06-08T01:22:56.821Z,20.16
2018-06-08T01:24:02.332Z,20.16
2018-06-08T01:25:07.851Z,20.21
2018-06-08T01:26:13.374Z,20.25
2018-06-08T01:27:18.886Z,20.15
2018-06-08T01:28:24.405Z,20.27
2018-06-08T01:29:29.925Z,20.08
2018-06-08T01:30:35.453Z,20.21
2018-06-08T01:31:40.954Z,20.12
2018-06-08T01:32:46.475Z,20.16
2018-06-08T01:33:51.990Z,20.21
2018-06-08T01:34:57.512Z,20.25
2018-06-08T01:36:03.029Z,20.23
2018-06-08T01:37:08.547Z,20.18
2018-06-08T01:38:14.064Z,20.16
2018-06-08T01:39:19.590Z,20.23
2018-06-08T01:40:25.096Z,20.15
2018-06-08T01:41:30.613Z,20.21
2018-06-08T01:42:36.141Z,20.12
2018-06-08T01:43:41.652Z,20.09
2018-06-08T01:44:47.178Z,20.15
2018-06-08T01:45:52.694Z,20.18
2018-06-08T01:46:58.202Z,20.23
2018-06-08T01:48:03.723Z,20.21
2018-06-08T01:49:09.239Z,20.09
2018-06-08T01:50:14.756Z,20.20
2018-06-08T01:51:20.273Z,20.23
2018-06-08T01:52:25.794Z,20.21
2018-06-08T01:53:31.316Z,20.15
2018-06-08T01:54:36.838Z,20.21
2018-06-08T01:55:42.346Z,20.18
2018-06-08T01:56:47.861Z,20.18
2018-06-08T01:57:53.381Z,20.20
2018-06-08T01:58:58.899Z,20.20
2018-06-08T02:00:04.413Z,20.20
2018-06-08T02:01:09.933Z,20.15
2018-06-08T02:02:15.446Z,20.13
2018-06-08T02:03:20.974Z,20.20
2018-06-08T02:04:26.484Z,20.16
2018-06-08T02:05:32.004Z,20.09
2018-06-08T02:06:37.520Z,20.15
2018-06-08T02:07:43.038Z,20.15
2018-06-08T02:08:48.553Z,20.09
2018-06-08T02:09:54.076Z,20.21
2018-06-08T02:10:59.594Z,20.21
2018-06-08T02:12:05.121Z,20.08
2018-06-08T02:13:10.625Z,20.09
2018-06-08T02:14:16.148Z,20.09
2018-06-08T02:15:21.665Z,20.20
2018-06-08T02:16:27.178Z,20.10
2018-06-08T02:17:32.694Z,20.18
2018-06-08T02:18:38.213Z,20.08
2018-06-08T02:19:43.734Z,20.20
2018-06-08T02:20:49.248Z,20.10
2018-06-08T02:21:54.765Z,20.15
2018-06-08T02:23:00.294Z,20.15
2018-06-08T02:24:05.805Z,20.18
2018-06-08T02:25:11.320Z,20.23
2018-06-08T02:26:16.843Z,20.08
2018-06-08T02:27:22.355Z,20.08
2018-06-08T02:28:27.869Z,20.16
2018-06-08T02:29:33.394Z,20.21
2018-06-08T02:30:38.908Z,20.09
2018-06-08T02:31:44.424Z,20.09
2018-06-08T02:32:49.952Z,20.20
2018-06-08T02:33:55.462Z,20.16
2018-06-08T02:35:00.985Z,20.20
2018-06-08T02:36:06.495Z,20.13
2018-06-08T02:37:12.047Z,20.25
2018-06-08T02:38:17.532Z,20.12
2018-06-08T02:39:23.058Z,20.21
2018-06-08T02:40:28.566Z,20.23
2018-06-08T02:41:34.092Z,20.27
2018-06-08T02:42:39.612Z,20.23
2018-06-08T02:43:45.125Z,20.23
2018-06-08T02:44:50.637Z,20.34
2018-06-08T02:45:56.161Z,20.20
2018-06-08T02:47:01.676Z,20.34
2018-06-08T02:48:07.202Z,20.25
2018-06-08T02:49:12.708Z,20.27
2018-06-08T02:50:18.230Z,20.28
2018-06-08T02:51:23.746Z,20.34
2018-06-08T02:52:29.264Z,20.27
2018-06-08T02:53:34.775Z,20.35
2018-06-08T02:54:40.300Z,20.34
2018-06-08T02:55:45.818Z,20.35
2018-06-08T02:56:51.331Z,20.31
2018-06-08T02:57:56.847Z,20.30
2018-06-08T02:59:02.366Z,20.31
2018-06-08T03:00:07.891Z,20.31
2018-06-08T03:01:13.401Z,20.31
2018-06-08T03:02:18.922Z,20.34
2018-06-08T03:03:24.436Z,20.31
2018-06-08T03:04:29.958Z,20.31
2018-06-08T03:05:35.490Z,20.33
2018-06-08T03:06:40.992Z,20.43
2018-06-08T03:07:46.521Z,20.42
2018-06-08T03:08:52.024Z,20.39
2018-06-08T03:09:57.546Z,20.39
2018-06-08T03:11:03.063Z,20.39
2018-06-08T03:12:08.642Z,20.38
2018-06-08T03:13:14.097Z,20.42
2018-06-08T03:14:19.616Z,20.41
2018-06-08T03:15:25.135Z,20.43
2018-06-08T03:16:30.646Z,20.49
2018-06-08T03:17:36.168Z,20.53
2018-06-08T03:18:41.686Z,20.46
2018-06-08T03:19:47.202Z,20.54
2018-06-08T03:20:52.720Z,20.50
2018-06-08T03:21:58.236Z,20.51
2018-06-08T03:23:03.752Z,20.50
2018-06-08T03:24:09.278Z,20.54
2018-06-08T03:25:14.792Z,20.56
2018-06-08T03:26:20.313Z,20.53
2018-06-08T03:27:25.830Z,20.56
2018-06-08T03:28:31.342Z,20.56
2018-06-08T03:29:36.860Z,20.56
2018-06-08T03:30:42.394Z,20.54
2018-06-08T03:31:47.897Z,20.53
2018-06-08T03:32:53.417Z,20.61
2018-06-08T03:33:58.932Z,20.54
2018-06-08T03:35:04.450Z,20.51
2018-06-08T03:36:09.974Z,20.54
2018-06-08T03:37:15.492Z,20.58
2018-06-08T03:38:21.011Z,20.54
2018-06-08T03:39:26.523Z,20.62
2018-06-08T03:40:32.047Z,20.65
2018-06-08T03:41:37.556Z,20.59
2018-06-08T03:42:43.096Z,20.61
2018-06-08T03:43:48.596Z,20.56
2018-06-08T03:44:54.108Z,20.62
2018-06-08T03:45:59.632Z,20.65
2018-06-08T03:47:05.145Z,20.65
2018-06-08T03:48:10.664Z,20.65
2018-06-08T03:49:16.182Z,20.64
2018-06-08T03:50:21.706Z,20.64
2018-06-08T03:51:27.224Z,20.66
2018-06-08T03:52:32.738Z,20.65
2018-06-08T03:53:38.257Z,20.68
2018-06-08T03:54:43.778Z,20.69
2018-06-08T03:55:49.289Z,20.76
2018-06-08T03:56:54.806Z,20.64
2018-06-08T03:58:00.340Z,20.80
2018-06-08T03:59:05.844Z,20.76
2018-06-08T04:00:11.363Z,20.79
2018-06-08T04:01:16.879Z,20.71
2018-06-08T04:02:22.464Z,20.74
2018-06-08T04:03:27.918Z,20.74
2018-06-08T04:04:33.435Z,20.72
2018-06-08T04:05:38.949Z,20.76
2018-06-08T04:06:44.465Z,20.86
2018-06-08T04:07:49.988Z,20.79
2018-06-08T04:08:55.504Z,20.79
2018-06-08T04:10:01.027Z,20.77
2018-06-08T04:11:06.542Z,20.90
2018-06-08T04:12:12.056Z,20.83
2018-06-08T04:13:17.584Z,20.95
2018-06-08T04:14:23.095Z,20.90
2018-06-08T04:15:28.654Z,20.91
2018-06-08T04:16:34.128Z,20.93
2018-06-08T04:17:39.645Z,20.84
2018-06-08T04:18:45.198Z,20.95
2018-06-08T04:19:50.685Z,20.86
2018-06-08T04:20:56.204Z,20.86
2018-06-08T04:22:01.723Z,20.90
2018-06-08T04:23:07.233Z,20.87
2018-06-08T04:24:12.757Z,20.87
2018-06-08T04:25:18.273Z,20.95
2018-06-08T04:26:23.786Z,20.91
2018-06-08T04:27:29.307Z,20.96
2018-06-08T04:28:34.825Z,20.93
2018-06-08T04:29:40.345Z,21.04
2018-06-08T04:30:45.859Z,21.08
2018-06-08T04:31:51.383Z,21.04
2018-06-08T04:32:56.917Z,21.04
2018-06-08T04:34:02.415Z,21.04
2018-06-08T04:35:07.933Z,21.04
2018-06-08T04:36:13.454Z,21.06
2018-06-08T04:37:18.967Z,21.06
2018-06-08T04:38:24.503Z,21.08
2018-06-08T04:39:30.013Z,21.06
2018-06-08T04:40:35.529Z,21.06
2018-06-08T04:41:41.047Z,21.08
2018-06-08T04:42:46.569Z,21.08
2018-06-08T04:43:52.079Z,21.08
2018-06-08T04:44:57.595Z,21.08
2018-06-08T04:46:03.120Z,21.11
2018-06-08T04:47:08.641Z,21.11
2018-06-08T04:48:14.154Z,21.05
2018-06-08T04:49:19.675Z,21.13
2018-06-08T04:50:25.186Z,21.08
2018-06-08T04:51:30.710Z,21.19
2018-06-08T04:52:36.223Z,21.14
2018-06-08T04:53:41.748Z,21.21
2018-06-08T04:54:47.261Z,21.27
2018-06-08T04:55:52.780Z,21.16
2018-06-08T04:56:58.315Z,21.24
2018-06-08T04:58:03.812Z,21.26
2018-06-08T04:59:09.334Z,21.26
2018-06-08T05:00:14.852Z,21.26
2018-06-08T05:01:20.409Z,21.26
2018-06-08T05:02:25.887Z,21.26
2018-06-08T05:03:31.405Z,21.19
2018-06-08T05:04:36.926Z,21.29
2018-06-08T05:05:42.439Z,21.41
2018-06-08T05:06:47.956Z,21.39
2018-06-08T05:07:53.476Z,21.36
2018-06-08T05:08:58.995Z,21.34
2018-06-08T05:10:04.512Z,21.36
2018-06-08T05:11:10.113Z,21.36
2018-06-08T05:12:15.552Z,21.35
2018-06-08T05:13:21.087Z,21.42
2018-06-08T05:14:26.589Z,21.30
2018-06-08T05:15:32.106Z,21.32
2018-06-08T05:16:37.633Z,21.41
2018-06-08T05:17:43.144Z,21.36
2018-06-08T05:18:48.660Z,21.41
2018-06-08T05:19:54.175Z,21.38
2018-06-08T05:20:59.695Z,21.46
2018-06-08T05:22:05.218Z,21.46
2018-06-08T05:23:10.730Z,21.48
2018-06-08T05:24:16.248Z,21.50
2018-06-08T05:25:21.772Z,21.48
2018-06-08T05:26:27.290Z,21.51
2018-06-08T05:27:32.805Z,21.50
2018-06-08T05:28:38.324Z,21.61
2018-06-08T05:29:43.845Z,21.56
2018-06-08T05:30:49.357Z,21.56
2018-06-08T05:31:54.876Z,21.54
2018-06-08T05:33:00.402Z,21.63
2018-06-08T05:34:05.927Z,21.64
2018-06-08T05:35:11.432Z,21.60
2018-06-08T05:36:16.950Z,21.63
2018-06-08T05:37:22.499Z,21.71
2018-06-08T05:38:27.990Z,21.64
2018-06-08T05:39:33.507Z,21.71
2018-06-08T05:40:39.046Z,21.74
2018-06-08T05:41:44.545Z,21.76
2018-06-08T05:42:50.077Z,21.75
2018-06-08T05:43:55.590Z,21.76
2018-06-08T05:45:01.097Z,21.79
2018-06-08T05:46:06.614Z,21.75
2018-06-08T05:47:12.139Z,21.85
2018-06-08T05:48:17.735Z,21.79
2018-06-08T05:49:23.171Z,21.88
2018-06-08T05:50:28.691Z,21.85
2018-06-08T05:51:34.214Z,21.88
2018-06-08T05:52:39.729Z,21.82
2018-06-08T05:53:45.321Z,21.79
2018-06-08T05:54:50.766Z,21.90
2018-06-08T05:55:56.287Z,21.95
2018-06-08T05:57:01.814Z,21.91
2018-06-08T05:58:07.331Z,21.92
2018-06-08T05:59:12.840Z,21.92
2018-06-08T06:00:18.361Z,21.97
2018-06-08T06:01:23.880Z,21.95
2018-06-08T06:02:29.411Z,21.99
2018-06-08T06:03:34.913Z,21.91
2018-06-08T06:04:40.440Z,22.04
2018-06-08T06:05:45.948Z,21.94
2018-06-08T06:06:51.478Z,21.98
2018-06-08T06:07:56.986Z,21.99
2018-06-08T06:09:02.514Z,22.09
2018-06-08T06:10:08.033Z,22.02
2018-06-08T06:11:13.543Z,22.10
2018-06-08T06:12:19.059Z,22.07
2018-06-08T06:13:24.580Z,22.06
2018-06-08T06:14:30.100Z,22.07
2018-06-08T06:15:35.631Z,22.10
2018-06-08T06:16:41.135Z,22.09
2018-06-08T06:17:46.659Z,22.12
2018-06-08T06:18:52.174Z,22.19
2018-06-08T06:19:57.701Z,22.16
2018-06-08T06:21:03.219Z,22.19
2018-06-08T06:22:08.731Z,22.25
2018-06-08T06:23:14.244Z,22.23
2018-06-08T06:24:19.766Z,22.27
2018-06-08T06:25:25.296Z,22.23
2018-06-08T06:26:30.806Z,22.23
2018-06-08T06:27:36.322Z,22.29
2018-06-08T06:28:41.847Z,22.35
2018-06-08T06:29:47.359Z,22.35
2018-06-08T06:30:52.876Z,22.29
2018-06-08T06:31:58.399Z,22.44
2018-06-08T06:33:03.924Z,22.35
2018-06-08T06:34:09.437Z,22.43
2018-06-08T06:35:14.956Z,22.52
2018-06-08T06:36:20.518Z,22.39
2018-06-08T06:37:25.988Z,22.46
2018-06-08T06:38:31.518Z,22.49
2018-06-08T06:39:37.057Z,22.50
2018-06-08T06:40:42.545Z,22.59
2018-06-08T06:41:48.065Z,22.59
2018-06-08T06:42:53.586Z,22.57
2018-06-08T06:43:59.106Z,22.62
2018-06-08T06:45:04.628Z,22.56
2018-06-08T06:46:10.141Z,22.67
2018-06-08T06:47:15.676Z,22.72
2018-06-08T06:48:21.181Z,22.69
2018-06-08T06:49:26.701Z,22.74
2018-06-08T06:50:32.226Z,22.83
2018-06-08T06:51:37.736Z,22.87
2018-06-08T06:52:43.269Z,22.83
2018-06-08T06:53:48.790Z,22.77
2018-06-08T06:54:54.296Z,22.78
2018-06-08T06:55:59.814Z,22.90
2018-06-08T06:57:05.334Z,22.90
2018-06-08T06:58:10.849Z,22.86
2018-06-08T06:59:16.369Z,22.83
2018-06-08T07:00:21.888Z,22.89
2018-06-08T07:01:27.411Z,22.90
2018-06-08T07:02:32.928Z,22.83
2018-06-08T07:03:38.451Z,22.87
2018-06-08T07:04:43.989Z,22.90
2018-06-08T07:05:49.482Z,22.94
2018-06-08T07:06:55.001Z,22.92
2018-06-08T07:08:00.525Z,22.97
2018-06-08T07:09:06.044Z,22.93
2018-06-08T07:10:11.556Z,22.92
2018-06-08T07:11:17.085Z,22.94
2018-06-08T07:12:22.608Z,22.89
2018-06-08T07:13:28.116Z,22.96
2018-06-08T07:14:33.637Z,22.93
2018-06-08T07:15:39.162Z,22.87
2018-06-08T07:16:44.677Z,22.90
2018-06-08T07:17:50.194Z,22.84
2018-06-08T07:18:55.723Z,22.90
2018-06-08T07:20:01.231Z,22.82
2018-06-08T07:21:06.758Z,22.74
2018-06-08T07:22:12.272Z,22.77
2018-06-08T07:23:17.787Z,22.78
2018-06-08T07:24:23.313Z,22.74
2018-06-08T07:25:28.829Z,22.77
2018-06-08T07:26:34.356Z,22.71
2018-06-08T07:27:39.864Z,22.69
2018-06-08T07:28:45.387Z,22.69
2018-06-08T07:29:50.904Z,22.69
2018-06-08T07:30:56.425Z,22.56
2018-06-08T07:32:02.035Z,22.56
2018-06-08T07:33:07.466Z,22.56
2018-06-08T07:34:13.002Z,22.50
2018-06-08T07:35:18.501Z,22.53
2018-06-08T07:36:24.020Z,22.49
2018-06-08T07:37:29.536Z,22.41
2018-06-08T07:38:35.056Z,22.44
2018-06-08T07:39:40.574Z,22.43
2018-06-08T07:40:46.093Z,22.41
2018-06-08T07:41:51.615Z,22.43
2018-06-08T07:42:57.130Z,22.38
2018-06-08T07:44:02.646Z,22.31
2018-06-08T07:45:08.171Z,22.31
2018-06-08T07:46:13.687Z,22.37
2018-06-08T07:47:19.203Z,22.43
2018-06-08T07:48:24.724Z,22.35
2018-06-08T07:49:30.240Z,22.27
2018-06-08T07:50:35.762Z,22.31
2018-06-08T07:51:41.282Z,22.27
2018-06-08T07:52:46.813Z,22.17
2018-06-08T07:53:52.382Z,22.23
2018-06-08T07:54:57.842Z,22.25
2018-06-08T07:56:03.357Z,22.16
2018-06-08T07:57:08.873Z,22.19
2018-06-08T07:58:14.402Z,22.23
2018-06-08T07:59:19.918Z,22.19
2018-06-08T08:00:25.436Z,22.10
2018-06-08T08:01:30.951Z,22.10
2018-06-08T08:02:36.465Z,22.19
2018-06-08T08:03:41.994Z,22.09
2018-06-08T08:04:47.509Z,22.10
2018-06-08T08:05:53.022Z,22.06
2018-06-08T08:06:58.555Z,22.04
2018-06-08T08:08:04.061Z,21.99
2018-06-08T08:09:09.610Z,21.91
2018-06-08T08:10:15.099Z,21.79
2018-06-08T08:11:20.614Z,21.76
2018-06-08T08:12:26.135Z,21.66
2018-06-08T08:13:31.651Z,21.60
2018-06-08T08:14:37.175Z,21.46
2018-06-08T08:15:42.689Z,21.34
2018-06-08T08:16:48.210Z,21.23
2018-06-08T08:17:53.729Z,21.20
2018-06-08T08:18:59.246Z,21.24
2018-06-08T08:20:04.763Z,21.26
2018-06-08T08:21:10.284Z,21.14
2018-06-08T08:22:15.798Z,21.05
2018-06-08T08:23:21.321Z,20.91
2018-06-08T08:24:26.849Z,20.91
2018-06-08T08:25:32.363Z,20.87
2018-06-08T08:26:37.885Z,20.79
2018-06-08T08:27:43.393Z,20.77
2018-06-08T08:28:48.922Z,20.81
2018-06-08T08:29:54.434Z,20.76
2018-06-08T08:30:59.944Z,20.80
2018-06-08T08:32:05.463Z,20.80
2018-06-08T08:33:10.989Z,20.79
2018-06-08T08:34:16.576Z,20.76
2018-06-08T08:35:22.023Z,20.76
2018-06-08T08:36:27.552Z,20.71
2018-06-08T08:37:33.062Z,20.79
2018-06-08T08:38:38.567Z,20.69
2018-06-08T08:39:44.149Z,20.62
2018-06-08T08:40:49.608Z,20.61
2018-06-08T08:41:55.120Z,20.65
2018-06-08T08:43:00.644Z,20.53
2018-06-08T08:44:06.163Z,20.50
2018-06-08T08:45:11.676Z,20.62
2018-06-08T08:46:17.197Z,20.66
2018-06-08T08:47:22.739Z,20.64
2018-06-08T08:48:28.230Z,20.68
2018-06-08T08:49:33.745Z,20.79
2018-06-08T08:50:39.265Z,20.76
2018-06-08T08:51:44.855Z,20.80
2018-06-08T08:52:50.306Z,20.80
2018-06-08T08:53:55.816Z,20.86
2018-06-08T08:55:01.334Z,20.91
2018-06-08T08:56:06.853Z,20.90
2018-06-08T08:57:12.375Z,20.93
2018-06-08T08:58:17.913Z,20.93
2018-06-08T08:59:23.409Z,21.09
2018-06-08T09:00:28.937Z,21.09
2018-06-08T09:01:34.446Z,21.13
2018-06-08T09:02:39.960Z,21.17
2018-06-08T09:03:45.553Z,21.20
2018-06-08T09:04:50.999Z,21.24
2018-06-08T09:05:56.515Z,21.35
2018-06-08T09:07:02.032Z,21.32
2018-06-08T09:08:07.554Z,21.35
2018-06-08T09:09:13.075Z,21.34
2018-06-08T09:10:18.592Z,21.51
2018-06-08T09:11:24.119Z,21.48
2018-06-08T09:12:29.625Z,21.46
2018-06-08T09:13:35.138Z,21.53
2018-06-08T09:14:40.662Z,21.61
2018-06-08T09:15:46.174Z,21.54
2018-06-08T09:16:51.696Z,21.63
2018-06-08T09:17:57.210Z,21.63
2018-06-08T09:19:02.732Z,21.69
2018-06-08T09:20:08.300Z,21.75
2018-06-08T09:21:13.772Z,21.78
2018-06-08T09:22:19.285Z,21.82
2018-06-08T09:23:24.808Z,21.83
2018-06-08T09:24:30.322Z,21.85
2018-06-08T09:25:35.847Z,21.79
2018-06-08T09:26:41.373Z,21.82
2018-06-08T09:27:46.874Z,21.81
2018-06-08T09:28:52.535Z,21.76
2018-06-08T09:29:57.921Z,21.94
2018-06-08T09:31:03.444Z,21.92
2018-06-08T09:32:08.957Z,21.88
2018-06-08T09:33:14.506Z,21.91
2018-06-08T09:34:19.994Z,21.98
2018-06-08T09:35:25.504Z,21.99
2018-06-08T09:36:31.030Z,21.92
2018-06-08T09:37:36.553Z,22.01
2018-06-08T09:38:42.076Z,21.91
2018-06-08T09:39:47.584Z,22.02
2018-06-08T09:40:53.113Z,22.02
2018-06-08T09:41:58.619Z,21.97
2018-06-08T09:43:04.141Z,21.98
2018-06-08T09:44:09.651Z,21.92
2018-06-08T09:45:15.178Z,21.95
2018-06-08T09:46:20.710Z,21.95
2018-06-08T09:47:26.209Z,22.02
2018-06-08T09:48:31.734Z,21.95
2018-06-08T09:49:37.248Z,21.97
2018-06-08T09:50:42.769Z,21.94
2018-06-08T09:51:48.302Z,21.92
2018-06-08T09:52:53.807Z,21.98
2018-06-08T09:53:59.319Z,21.97
2018-06-08T09:55:04.842Z,21.99
2018-06-08T09:56:10.372Z,21.95
2018-06-08T09:57:15.875Z,21.94
2018-06-08T09:58:21.397Z,21.97
2018-06-08T09:59:27.015Z,21.83
2018-06-08T10:00:32.431Z,21.85
2018-06-08T10:01:38.004Z,21.90
2018-06-08T10:02:43.481Z,21.81
2018-06-08T10:03:48.987Z,21.83
2018-06-08T10:04:54.582Z,21.74
2018-06-08T10:06:00.035Z,21.76
2018-06-08T10:07:05.542Z,21.74
2018-06-08T10:08:11.072Z,21.72
2018-06-08T10:09:16.580Z,21.76
2018-06-08T10:10:22.103Z,21.72
2018-06-08T10:11:27.633Z,21.75
2018-06-08T10:12:33.139Z,21.74
2018-06-08T10:13:38.657Z,21.63
2018-06-08T10:14:44.174Z,21.57
2018-06-08T10:15:49.710Z,21.53
2018-06-08T10:16:55.256Z,21.56
2018-06-08T10:18:00.744Z,21.53
2018-06-08T10:19:06.286Z,21.53
2018-06-08T10:20:11.762Z,21.48
2018-06-08T10:21:17.285Z,21.56
2018-06-08T10:22:22.799Z,21.57
2018-06-08T10:23:28.328Z,21.63
2018-06-08T10:24:33.843Z,21.57
2018-06-08T10:25:39.354Z,21.61
2018-06-08T10:26:44.888Z,21.54
2018-06-08T10:27:50.401Z,21.64
2018-06-08T10:28:55.916Z,21.60
2018-06-08T10:30:01.429Z,21.56
2018-06-08T10:31:06.945Z,21.59
2018-06-08T10:32:12.465Z,21.63
2018-06-08T10:33:17.984Z,21.50
2018-06-08T10:34:23.554Z,21.56
2018-06-08T10:35:29.026Z,21.53
2018-06-08T10:36:34.641Z,21.60
2018-06-08T10:37:40.084Z,21.61
2018-06-08T10:38:45.575Z,21.59
2018-06-08T10:39:51.093Z,21.61
2018-06-08T10:40:56.705Z,21.61
2018-06-08T10:42:02.133Z,21.57
2018-06-08T10:43:07.653Z,21.53
2018-06-08T10:44:13.165Z,21.57
2018-06-08T10:45:18.726Z,21.64
2018-06-08T10:46:24.204Z,21.61
2018-06-08T10:47:29.727Z,21.71
2018-06-08T10:48:35.241Z,21.71
2018-06-08T10:49:40.768Z,21.69
2018-06-08T10:50:46.288Z,21.76
2018-06-08T10:51:51.799Z,21.74
2018-06-08T10:52:57.312Z,21.67
2018-06-08T10:54:02.833Z,21.76
2018-06-08T10:55:08.354Z,21.78
2018-06-08T10:56:13.864Z,21.79
2018-06-08T10:57:19.388Z,21.83
2018-06-08T10:58:24.909Z,21.83
2018-06-08T10:59:30.561Z,21.88
2018-06-08T11:00:35.952Z,21.90
2018-06-08T11:01:41.461Z,21.97
2018-06-08T11:02:46.989Z,22.09
2018-06-08T11:03:52.500Z,22.16
2018-06-08T11:04:58.016Z,22.25
2018-06-08T11:06:03.548Z,22.35
2018-06-08T11:07:09.059Z,22.35
2018-06-08T11:08:14.571Z,22.39
2018-06-08T11:09:20.105Z,22.39
2018-06-08T11:10:25.607Z,22.54
2018-06-08T11:11:31.127Z,22.49
2018-06-08T11:12:36.644Z,22.53
2018-06-08T11:13:42.160Z,22.43
2018-06-08T11:14:47.685Z,22.37
2018-06-08T11:15:53.204Z,22.47
2018-06-08T11:16:58.719Z,22.41
2018-06-08T11:18:04.238Z,22.46
2018-06-08T11:19:09.792Z,22.44
2018-06-08T11:20:15.273Z,22.52
2018-06-08T11:21:20.792Z,22.54
2018-06-08T11:22:26.323Z,22.65
2018-06-08T11:23:31.835Z,22.54
2018-06-08T11:24:37.374Z,22.59
2018-06-08T11:25:42.872Z,22.67
2018-06-08T11:26:48.385Z,22.68
2018-06-08T11:27:53.992Z,22.71
2018-06-08T11:28:59.439Z,22.80
2018-06-08T11:30:04.962Z,22.71
2018-06-08T11:31:10.469Z,22.75
2018-06-08T11:32:15.989Z,22.78
2018-06-08T11:33:21.506Z,22.68
2018-06-08T11:34:27.020Z,22.82
2018-06-08T11:35:32.534Z,22.78
2018-06-08T11:36:38.060Z,22.84
2018-06-08T11:37:43.579Z,22.93
2018-06-08T11:38:49.093Z,22.97
2018-06-08T11:39:54.620Z,23.01
2018-06-08T11:41:00.129Z,22.94
2018-06-08T11:42:05.661Z,23.01
2018-06-08T11:43:11.170Z,23.08
2018-06-08T11:44:16.693Z,23.11
2018-06-08T11:45:22.205Z,23.04
2018-06-08T11:46:27.762Z,23.14
2018-06-08T11:47:33.241Z,23.27
2018-06-08T11:48:38.767Z,23.27
2018-06-08T11:49:44.280Z,23.35
2018-06-08T11:50:49.804Z,23.39
2018-06-08T11:51:55.324Z,23.35
2018-06-08T11:53:00.847Z,23.27
2018-06-08T11:54:06.361Z,23.26
2018-06-08T11:55:11.876Z,23.26
2018-06-08T11:56:17.405Z,23.31
2018-06-08T11:57:22.997Z,23.26
2018-06-08T11:58:28.436Z,23.29
2018-06-08T11:59:33.973Z,23.34
2018-06-08T12:00:39.475Z,23.27
2018-06-08T12:01:45.020Z,23.38
2018-06-08T12:02:50.524Z,23.45
2018-06-08T12:03:56.035Z,23.46
2018-06-08T12:05:01.556Z,23.39
2018-06-08T12:06:07.081Z,23.45
2018-06-08T12:07:12.588Z,23.50
2018-06-08T12:08:18.105Z,23.46
2018-06-08T12:09:23.631Z,23.43
2018-06-08T12:10:29.161Z,23.35
2018-06-08T12:11:34.696Z,23.42
2018-06-08T12:12:40.194Z,23.42
2018-06-08T12:13:45.711Z,23.45
2018-06-08T12:14:51.228Z,23.27
2018-06-08T12:15:56.746Z,23.32
2018-06-08T12:17:02.322Z,23.27
2018-06-08T12:18:07.794Z,23.29
2018-06-08T12:19:13.298Z,23.29
2018-06-08T12:20:18.826Z,23.34
2018-06-08T12:21:24.347Z,23.29
2018-06-08T12:22:29.860Z,23.32
2018-06-08T12:23:35.382Z,23.31
2018-06-08T12:24:40.902Z,23.34
2018-06-08T12:25:46.423Z,23.29
2018-06-08T12:26:51.931Z,23.29
2018-06-08T12:27:57.455Z,23.35
2018-06-08T12:29:02.974Z,23.39
2018-06-08T12:30:08.498Z,23.47
2018-06-08T12:31:14.021Z,23.43
2018-06-08T12:32:19.534Z,23.47
2018-06-08T12:33:25.052Z,23.52
2018-06-08T12:34:30.566Z,23.57
2018-06-08T12:35:36.089Z,23.58
2018-06-08T12:36:41.617Z,23.60
2018-06-08T12:37:47.128Z,23.57
2018-06-08T12:38:52.655Z,23.67
2018-06-08T12:39:58.182Z,23.64
2018-06-08T12:41:03.699Z,23.65
2018-06-08T12:42:09.201Z,23.68
2018-06-08T12:43:14.795Z,23.71
2018-06-08T12:44:20.243Z,23.75
2018-06-08T12:45:25.769Z,23.67
2018-06-08T12:46:31.287Z,23.70
2018-06-08T12:47:36.805Z,23.79
2018-06-08T12:48:42.323Z,23.89
2018-06-08T12:49:47.851Z,23.94
2018-06-08T12:50:53.366Z,23.89
2018-06-08T12:51:58.897Z,23.95
2018-06-08T12:53:04.406Z,23.94
2018-06-08T12:54:09.927Z,24.01
2018-06-08T12:55:15.440Z,24.08
2018-06-08T12:56:20.970Z,24.07
2018-06-08T12:57:26.490Z,24.01
2018-06-08T12:58:32.002Z,24.02
2018-06-08T12:59:37.517Z,24.05
2018-06-08T13:00:43.036Z,24.10
2018-06-08T13:01:48.558Z,24.08
2018-06-08T13:02:54.079Z,24.12
2018-06-08T13:03:59.595Z,24.12
2018-06-08T13:05:05.116Z,24.08
2018-06-08T13:06:10.641Z,24.05
2018-06-08T13:07:16.180Z,24.13
2018-06-08T13:08:21.673Z,24.14
2018-06-08T13:09:27.196Z,24.08
2018-06-08T13:10:32.717Z,24.04
2018-06-08T13:11:38.236Z,24.01
2018-06-08T13:12:43.763Z,24.16
2018-06-08T13:13:49.274Z,24.01
2018-06-08T13:14:54.796Z,24.14
2018-06-08T13:16:00.325Z,24.13
2018-06-08T13:17:05.897Z,24.16
2018-06-08T13:18:11.358Z,24.10
2018-06-08T13:19:16.875Z,24.19
2018-06-08T13:20:22.395Z,24.14
2018-06-08T13:21:27.913Z,24.20
2018-06-08T13:22:33.434Z,24.13
2018-06-08T13:23:38.956Z,24.16
2018-06-08T13:24:44.572Z,24.20
2018-06-08T13:25:49.989Z,24.19
2018-06-08T13:26:55.512Z,24.16
2018-06-08T13:28:01.035Z,24.26
2018-06-08T13:29:06.563Z,24.26
2018-06-08T13:30:12.081Z,24.29
2018-06-08T13:31:17.600Z,24.26
2018-06-08T13:32:23.115Z,24.27
2018-06-08T13:33:28.627Z,24.38
2018-06-08T13:34:34.148Z,24.32
2018-06-08T13:35:39.683Z,24.37
2018-06-08T13:36:45.205Z,24.38
2018-06-08T13:37:50.717Z,24.26
2018-06-08T13:38:56.234Z,24.38
2018-06-08T13:40:01.747Z,24.41
2018-06-08T13:41:07.268Z,24.45
2018-06-08T13:42:12.788Z,24.44
2018-06-08T13:43:18.316Z,24.59
2018-06-08T13:44:23.836Z,24.63
2018-06-08T13:45:29.348Z,24.61
2018-06-08T13:46:34.867Z,24.61
2018-06-08T13:47:40.395Z,24.75
2018-06-08T13:48:45.906Z,24.79
2018-06-08T13:49:51.440Z,24.77
2018-06-08T13:50:56.949Z,24.83
2018-06-08T13:52:02.474Z,24.88
2018-06-08T13:53:08.034Z,24.90
2018-06-08T13:54:13.503Z,24.83
2018-06-08T13:55:19.029Z,24.82
2018-06-08T13:56:24.551Z,24.97
2018-06-08T13:57:30.072Z,24.95
2018-06-08T13:58:35.583Z,25.01
2018-06-08T13:59:41.106Z,25.06
2018-06-08T14:00:46.632Z,25.02
2018-06-08T14:01:52.153Z,25.12
2018-06-08T14:02:57.660Z,25.16
2018-06-08T14:04:03.187Z,25.16